Time;durP1;ratioP1;P1;durP2;ratioP2;P2;SDS_P1;SDS_P2;PMS_P1;PMS_P2;Temp;Humidity;BMP_temperature;BMP_pressure;BME280_temperature;BME280_humidity;BME280_pressure;Samples;Min_cycle;Max_cycle;Signal;HPM_P1;HPM_P2
2023/04/11 00:01:06;;;;;;;3.03;2.83;;;;;;;19.67;50.30;97250.47;4946519;29;20256;-29
2023/04/11 00:03:33;;;;;;;3.63;3.30;;;;;;;19.67;49.93;97245.34;4953925;28;20233;-30
2023/04/11 00:06:00;;;;;;;3.40;3.10;;;;;;;19.67;49.87;97244.47;4954147;29;20271;-27
2023/04/11 00:08:26;;;;;;;4.43;3.43;;;;;;;19.67;50.01;97244.47;4945328;29;20209;-27
2023/04/11 00:10:53;;;;;;;3.30;3.00;;;;;;;19.63;49.87;97218.00;4948384;28;20741;-28
2023/04/11 00:13:20;;;;;;;3.10;2.90;;;;;;;19.59;50.12;97202.56;4954436;29;20584;-28
2023/04/11 00:15:46;;;;;;;4.27;3.20;;;;;;;19.65;50.22;97210.41;4950228;29;20205;-27
2023/04/11 00:18:13;;;;;;;3.57;3.27;;;;;;;19.67;49.95;97218.97;4943273;29;20209;-29
2023/04/11 00:20:40;;;;;;;3.40;3.00;;;;;;;19.66;49.85;97213.00;4947944;29;20259;-28
2023/04/11 00:23:07;;;;;;;3.83;3.37;;;;;;;19.65;49.75;97203.63;4943494;29;20201;-27
2023/04/11 00:25:36;;;;;;;2.93;2.63;;;;;;;19.66;49.68;97186.69;4950435;28;20227;-27
2023/04/11 00:28:03;;;;;;;3.90;3.50;;;;;;;19.65;50.12;97167.06;4949859;29;20275;-29
2023/04/11 00:30:29;;;;;;;3.60;3.20;;;;;;;19.65;49.72;97167.06;4929304;29;20307;-27
2023/04/11 00:32:56;;;;;;;3.60;3.00;;;;;;;19.65;50.05;97160.31;4948766;29;20240;-29
2023/04/11 00:35:23;;;;;;;3.00;2.80;;;;;;;19.65;49.89;97167.06;4944497;29;20197;-29
2023/04/11 00:37:54;;;;;;;3.10;2.90;;;;;;;19.64;50.05;97167.91;4946200;29;20200;-28
2023/04/11 00:40:21;;;;;;;4.00;3.13;;;;;;;19.64;50.01;97191.72;4954313;28;20231;-29
2023/04/11 00:42:48;;;;;;;3.40;3.10;;;;;;;19.64;50.01;97189.19;4949631;29;20216;-29
2023/04/11 00:45:15;;;;;;;2.93;2.70;;;;;;;19.57;50.11;97177.03;4920735;28;20259;-28
2023/04/11 00:47:41;;;;;;;3.53;3.23;;;;;;;19.58;49.90;97181.34;4947613;28;20303;-29
2023/04/11 00:50:08;;;;;;;3.53;3.07;;;;;;;19.63;50.04;97204.41;4924777;29;20233;-30
2023/04/11 00:52:35;;;;;;;4.07;2.70;;;;;;;19.60;49.97;97206.88;4946630;29;20232;-28
2023/04/11 00:55:02;;;;;;;3.33;3.03;;;;;;;19.61;49.97;97211.16;4929695;29;20284;-29
2023/04/11 00:57:29;;;;;;;3.47;3.10;;;;;;;19.64;49.92;97222.31;4944594;29;20298;-28
2023/04/11 00:59:57;;;;;;;3.90;3.23;;;;;;;19.61;50.27;97196.72;4938350;29;20225;-28
2023/04/11 01:02:23;;;;;;;3.10;2.80;;;;;;;19.51;49.77;97171.75;4929680;29;20326;-28
2023/04/11 01:04:50;;;;;;;3.10;2.90;;;;;;;19.59;49.99;97177.97;4952306;29;20224;-30
2023/04/11 01:07:17;;;;;;;3.13;2.83;;;;;;;19.63;49.82;97184.88;4912306;29;20215;-27
2023/04/11 01:09:43;;;;;;;3.27;2.97;;;;;;;19.54;50.03;97159.09;4918522;29;20217;-28
2023/04/11 01:12:10;;;;;;;3.27;2.97;;;;;;;19.61;49.91;97160.16;4920688;29;20212;-28
2023/04/11 01:14:37;;;;;;;3.07;2.87;;;;;;;19.56;50.19;97141.31;4935547;29;20282;-28
2023/04/11 01:17:03;;;;;;;3.00;2.80;;;;;;;19.57;50.20;97128.59;4929355;29;20232;-27
2023/04/11 01:19:30;;;;;;;2.93;2.73;;;;;;;19.63;50.50;97133.06;4917204;29;20260;-29
2023/04/11 01:21:57;;;;;;;3.50;3.20;;;;;;;19.59;50.35;97121.88;4940241;29;20204;-27
2023/04/11 01:24:24;;;;;;;3.20;2.90;;;;;;;19.58;50.19;97119.28;4934138;29;20303;-28
2023/04/11 01:26:51;;;;;;;3.50;3.20;;;;;;;19.63;49.92;97131.34;4933944;29;20204;-28
2023/04/11 01:29:17;;;;;;;3.60;3.30;;;;;;;19.61;49.84;97125.34;4953192;28;20601;-29
2023/04/11 01:31:44;;;;;;;3.80;3.00;;;;;;;19.62;50.19;97119.44;4953131;28;20258;-27
2023/04/11 01:34:12;;;;;;;2.80;2.60;;;;;;;19.62;49.98;97116.88;4945342;28;20208;-27
2023/04/11 01:36:40;;;;;;;3.10;2.80;;;;;;;19.63;50.03;97121.16;4921187;29;20200;-29
2023/04/11 01:39:07;;;;;;;3.30;2.90;;;;;;;19.64;50.22;97122.03;4936529;29;20204;-27
2023/04/11 01:41:34;;;;;;;3.40;3.00;;;;;;;19.62;50.21;97116.00;4912778;29;20234;-28
2023/04/11 01:44:02;;;;;;;3.00;2.80;;;;;;;19.63;50.06;97127.94;4936250;29;20699;-28
2023/04/11 01:46:29;;;;;;;3.30;3.00;;;;;;;19.31;50.19;97059.84;4944301;29;20208;-27
2023/04/11 01:48:56;;;;;;;3.30;3.00;;;;;;;19.62;50.14;97105.81;4946699;28;20224;-28
2023/04/11 01:51:23;;;;;;;3.30;3.00;;;;;;;19.63;50.20;97102.47;4934131;29;20225;-28
2023/04/11 01:53:50;;;;;;;3.60;3.30;;;;;;;19.62;50.13;97106.69;4952160;29;20210;-28
2023/04/11 01:56:16;;;;;;;3.17;2.93;;;;;;;19.63;50.53;97107.56;4952548;29;20223;-28
2023/04/11 01:58:43;;;;;;;3.23;3.00;;;;;;;19.55;50.39;97096.25;4945718;29;20236;-29
2023/04/11 02:01:12;;;;;;;3.47;3.17;;;;;;;19.63;49.93;97100.75;4943713;29;20216;-28
2023/04/11 02:03:38;;;;;;;3.50;3.20;;;;;;;19.64;49.99;97101.63;4951801;28;20204;-34
2023/04/11 02:06:05;;;;;;;3.60;3.30;;;;;;;19.54;50.11;97069.06;4942330;29;20216;-28
2023/04/11 02:08:32;;;;;;;3.50;3.20;;;;;;;19.64;50.10;97083.78;4942827;29;20204;-28
2023/04/11 02:10:58;;;;;;;3.30;3.00;;;;;;;19.64;50.31;97076.13;4946855;28;20240;-27
2023/04/11 02:13:25;;;;;;;3.40;3.10;;;;;;;19.62;50.63;97075.22;4939250;29;20205;-29
2023/04/11 02:15:51;;;;;;;3.40;3.10;;;;;;;19.64;50.23;97081.22;4940767;29;20205;-28
2023/04/11 02:18:18;;;;;;;3.53;3.23;;;;;;;19.63;50.26;97061.69;4954567;28;20211;-29
2023/04/11 02:20:44;;;;;;;3.07;2.77;;;;;;;19.63;50.02;97065.06;4952933;28;20225;-28
2023/04/11 02:23:11;;;;;;;3.10;2.80;;;;;;;19.63;49.77;97064.22;4952565;29;20200;-27
2023/04/11 02:25:38;;;;;;;3.57;3.27;;;;;;;19.63;50.33;97062.50;4944710;29;20631;-28
2023/04/11 02:28:04;;;;;;;3.47;3.17;;;;;;;19.63;49.80;97059.13;4942348;29;20291;-29
2023/04/11 02:30:33;;;;;;;3.33;3.03;;;;;;;19.60;50.51;97043.75;4948508;28;20227;-28
2023/04/11 02:33:00;;;;;;;3.30;3.00;;;;;;;19.63;50.37;97054.03;4948689;29;20236;-28
2023/04/11 02:35:27;;;;;;;3.37;3.07;;;;;;;19.63;49.78;97052.31;4955126;29;20251;-29
2023/04/11 02:37:53;;;;;;;3.23;2.93;;;;;;;19.63;50.09;97054.03;4950076;29;20291;-29
2023/04/11 02:40:20;;;;;;;3.47;3.17;;;;;;;19.61;50.06;97059.09;4955944;28;20275;-28
2023/04/11 02:42:46;;;;;;;2.87;2.67;;;;;;;19.61;49.99;97048.00;4956184;29;20204;-29
2023/04/11 02:45:13;;;;;;;3.33;3.10;;;;;;;19.62;50.09;97044.63;4952668;28;20839;-28
2023/04/11 02:47:40;;;;;;;3.30;3.00;;;;;;;19.62;49.80;97039.53;4945200;29;20767;-29
2023/04/11 02:50:07;;;;;;;3.17;2.97;;;;;;;19.49;50.20;97017.06;4952468;28;20231;-27
2023/04/11 02:52:33;;;;;;;3.03;2.83;;;;;;;19.62;50.17;97031.88;4952049;29;20196;-28
2023/04/11 02:55:00;;;;;;;3.70;3.10;;;;;;;19.61;50.49;97031.03;4937859;29;20205;-29
2023/04/11 02:57:27;;;;;;;3.43;3.13;;;;;;;19.48;50.11;97003.44;4952241;29;20587;-28
2023/04/11 02:59:53;;;;;;;3.00;2.80;;;;;;;19.63;49.97;97036.19;4945386;28;20216;-30
2023/04/11 03:02:22;;;;;;;3.33;3.10;;;;;;;19.62;50.15;97034.44;4946289;29;20200;-27
2023/04/11 03:04:49;;;;;;;3.33;3.03;;;;;;;19.59;50.11;97042.88;4944881;29;20324;-27
2023/04/11 03:07:15;;;;;;;3.33;2.90;;;;;;;19.59;50.30;97039.44;4942024;29;20232;-37
2023/04/11 03:09:42;;;;;;;3.40;3.10;;;;;;;19.61;50.07;97027.63;4949591;29;20236;-28
2023/04/11 03:12:08;;;;;;;3.40;3.10;;;;;;;19.58;50.17;97045.38;4949361;29;20299;-28
2023/04/11 03:14:35;;;;;;;3.20;3.00;;;;;;;19.58;50.73;97050.47;4947254;29;20204;-27
2023/04/11 03:17:01;;;;;;;3.30;3.00;;;;;;;19.60;50.00;97039.50;4946296;29;20205;-28
2023/04/11 03:19:28;;;;;;;3.17;2.87;;;;;;;19.62;50.71;97031.88;4952058;28;20664;-32
2023/04/11 03:21:54;;;;;;;2.97;2.77;;;;;;;19.61;50.34;97041.25;4942924;28;20259;-30
2023/04/11 03:24:21;;;;;;;3.37;3.07;;;;;;;19.62;49.92;97027.66;4920036;29;20237;-28
2023/04/11 03:26:47;;;;;;;3.00;2.80;;;;;;;19.62;50.15;97021.69;4940245;29;20243;-28
2023/04/11 03:29:15;;;;;;;3.70;3.30;;;;;;;19.62;50.66;97003.84;4949592;29;20287;-29
2023/04/11 03:31:42;;;;;;;3.07;2.80;;;;;;;19.63;50.37;97003.03;4943065;28;20260;-27
2023/04/11 03:34:08;;;;;;;3.30;3.00;;;;;;;19.63;50.40;96997.94;4953136;29;20204;-33
2023/04/11 03:36:35;;;;;;;3.20;3.00;;;;;;;19.61;50.25;96991.94;4946881;28;20216;-28
2023/04/11 03:39:02;;;;;;;3.20;2.90;;;;;;;19.58;50.34;96986.75;4954760;29;20232;-28
2023/04/11 03:41:29;;;;;;;3.27;3.00;;;;;;;19.54;50.13;96983.25;4954803;28;20262;-34
2023/04/11 03:43:55;;;;;;;3.47;2.90;;;;;;;19.58;49.95;96986.75;4937028;29;20200;-28
2023/04/11 03:46:22;;;;;;;3.00;2.80;;;;;;;19.29;50.12;96934.09;4954525;29;20216;-27
2023/04/11 03:48:49;;;;;;;3.27;3.03;;;;;;;19.63;50.61;96985.19;4954313;28;20200;-27
2023/04/11 03:51:15;;;;;;;3.20;2.93;;;;;;;19.63;49.92;96985.19;4945295;29;20225;-29
2023/04/11 03:53:42;;;;;;;3.10;2.90;;;;;;;19.62;50.38;96991.09;4940918;29;20303;-28
2023/04/11 03:56:09;;;;;;;3.40;3.10;;;;;;;19.58;50.33;96987.63;4943707;29;20201;-27
2023/04/11 03:58:35;;;;;;;3.30;3.00;;;;;;;19.60;50.11;96987.66;4945460;29;20870;-27
2023/04/11 04:01:02;;;;;;;3.47;3.17;;;;;;;19.59;50.26;96988.47;4951213;29;20756;-27
2023/04/11 04:03:29;;;;;;;3.40;3.20;;;;;;;19.62;50.82;96989.44;4947210;29;20208;-28
2023/04/11 04:05:56;;;;;;;3.47;3.17;;;;;;;19.60;49.91;96987.66;4953773;29;20224;-28
2023/04/11 04:08:22;;;;;;;3.63;3.33;;;;;;;19.63;50.00;96980.09;4946080;28;20206;-30
2023/04/11 04:10:49;;;;;;;3.67;3.37;;;;;;;19.50;50.52;96960.16;4941948;29;20239;-27
2023/04/11 04:13:15;;;;;;;3.80;3.50;;;;;;;19.60;50.18;96975.75;4947606;29;20283;-28
2023/04/11 04:15:42;;;;;;;3.73;3.40;;;;;;;19.55;50.24;96964.59;4949084;29;20208;-27
2023/04/11 04:18:09;;;;;;;3.70;3.40;;;;;;;19.62;50.05;96975.81;4946750;29;20200;-28
2023/04/11 04:20:35;;;;;;;5.53;3.23;;;;;;;19.65;50.58;96983.53;4947131;28;20224;-28
2023/04/11 04:23:03;;;;;;;3.63;3.33;;;;;;;19.63;50.08;96983.50;4949136;29;20291;-27
2023/04/11 04:25:30;;;;;;;5.37;3.50;;;;;;;19.65;50.50;96981.88;4940292;28;20315;-27
2023/04/11 04:27:56;;;;;;;4.03;3.73;;;;;;;19.65;50.17;96986.97;4948418;29;20228;-28
2023/04/11 04:30:27;;;;;;;3.97;3.67;;;;;;;19.65;50.55;96976.78;4947937;29;20232;-31
2023/04/11 04:32:58;;;;;;;3.60;3.30;;;;;;;19.63;50.40;96970.75;4950648;29;20224;-28
2023/04/11 04:35:25;;;;;;;3.80;3.50;;;;;;;19.67;50.36;96979.38;4951898;28;20739;-28
2023/04/11 04:37:52;;;;;;;3.87;3.50;;;;;;;19.67;50.46;96977.69;4950760;29;20232;-29
2023/04/11 04:40:20;;;;;;;3.60;3.10;;;;;;;19.64;50.32;96977.59;4953516;28;20327;-28
2023/04/11 04:42:56;;;;;;;3.60;3.30;;;;;;;19.67;50.37;96980.25;4947156;28;20213;-29
2023/04/11 04:45:24;;;;;;;3.93;3.37;;;;;;;19.68;50.38;96975.97;4949552;29;20228;-29
2023/04/11 04:47:51;;;;;;;4.07;3.67;;;;;;;19.65;50.29;96986.09;4944137;29;20328;-28
2023/04/11 04:50:18;;;;;;;4.03;3.63;;;;;;;19.61;50.45;96976.63;4952933;28;20730;-27
2023/04/11 04:52:45;;;;;;;3.83;3.53;;;;;;;19.68;50.22;96992.16;4954035;29;20240;-29
2023/04/11 04:55:12;;;;;;;4.17;3.63;;;;;;;19.70;50.26;97004.94;4946883;29;20228;-28
2023/04/11 04:57:39;;;;;;;4.23;3.20;;;;;;;19.68;50.62;96999.78;4949765;28;20208;-30
2023/04/11 05:00:10;;;;;;;3.43;3.00;;;;;;;19.70;50.16;97018.56;4948840;29;20228;-27
2023/04/11 05:02:36;;;;;;;4.37;3.97;;;;;;;19.69;50.24;96996.41;4930874;29;20633;-28
2023/04/11 05:05:04;;;;;;;3.97;3.57;;;;;;;19.59;50.29;96986.78;4944702;29;20220;-27
2023/04/11 05:07:30;;;;;;;3.30;3.03;;;;;;;19.71;50.08;97001.56;4950684;29;20287;-28
2023/04/11 05:09:57;;;;;;;3.60;3.33;;;;;;;19.69;50.33;97004.06;4949086;28;20228;-29
2023/04/11 05:12:25;;;;;;;4.23;3.40;;;;;;;19.68;50.19;97022.75;4946996;29;20205;-29
2023/04/11 05:14:54;;;;;;;4.00;3.70;;;;;;;19.71;50.77;97027.03;4943114;28;20201;-28
2023/04/11 05:17:21;;;;;;;3.73;3.43;;;;;;;19.71;50.18;97022.81;4942819;28;20292;-29
2023/04/11 05:19:51;;;;;;;3.80;3.50;;;;;;;19.66;50.22;97023.53;4947952;29;20247;-29
2023/04/11 05:22:17;;;;;;;4.83;3.70;;;;;;;19.71;49.93;97034.69;4946780;29;20201;-28
2023/04/11 05:24:44;;;;;;;8.50;3.70;;;;;;;19.66;50.58;97039.66;4944759;29;20208;-29
2023/04/11 05:27:12;;;;;;;6.73;3.63;;;;;;;19.67;50.28;97038.88;4953717;29;20215;-28
2023/04/11 05:29:38;;;;;;;7.60;3.93;;;;;;;19.71;50.33;97048.31;4948674;28;20265;-29
2023/04/11 05:32:05;;;;;;;7.93;4.63;;;;;;;19.71;50.61;97042.34;4946830;29;20665;-29
2023/04/11 05:34:33;;;;;;;7.53;4.23;;;;;;;19.72;50.24;97042.38;4944685;29;20197;-29
2023/04/11 05:37:00;;;;;;;8.67;3.80;;;;;;;19.73;50.78;97051.78;4950531;29;20201;-27
2023/04/11 05:39:26;;;;;;;14.40;4.60;;;;;;;19.74;49.89;97045.84;4949069;28;20242;-29
2023/04/11 05:41:53;;;;;;;12.40;4.90;;;;;;;19.74;50.29;97050.97;4942526;29;20561;-27
2023/04/11 05:44:20;;;;;;;16.57;6.17;;;;;;;19.74;50.10;97038.22;4950419;29;20360;-27
2023/04/11 05:46:46;;;;;;;12.77;5.60;;;;;;;19.74;49.67;97034.78;4944795;28;20259;-28
2023/04/11 05:49:13;;;;;;;20.03;5.80;;;;;;;19.74;49.37;97050.06;4952326;29;20200;-29
2023/04/11 05:51:39;;;;;;;11.50;6.37;;;;;;;19.74;49.35;97047.53;4951236;29;20726;-30
2023/04/11 05:54:06;;;;;;;10.83;5.70;;;;;;;19.73;49.64;97051.78;4952651;29;20215;-27
2023/04/11 05:56:34;;;;;;;17.67;5.97;;;;;;;19.74;49.62;97052.63;4959439;29;20220;-29
2023/04/11 05:59:00;;;;;;;10.90;5.97;;;;;;;19.70;49.77;97048.28;4954905;28;20200;-27
2023/04/11 06:01:29;;;;;;;20.30;5.37;;;;;;;19.70;49.41;97056.81;4952611;28;20274;-28
2023/04/11 06:03:56;;;;;;;11.87;5.80;;;;;;;19.71;50.21;97063.63;4954992;29;20212;-31
2023/04/11 06:06:23;;;;;;;10.03;5.70;;;;;;;19.68;49.75;97060.09;4957733;29;20644;-27
2023/04/11 06:08:50;;;;;;;12.33;6.00;;;;;;;19.71;50.01;97055.97;4953982;29;20264;-30
2023/04/11 06:11:17;;;;;;;9.53;5.67;;;;;;;19.71;50.27;97039.78;4957347;28;20605;-27
2023/04/11 06:13:43;;;;;;;10.67;5.80;;;;;;;19.71;49.65;97040.66;4954771;28;20609;-29
2023/04/11 06:16:10;;;;;;;7.50;5.00;;;;;;;19.72;50.16;97039.00;4955824;28;20896;-29
2023/04/11 06:18:36;;;;;;;6.40;5.30;;;;;;;19.71;49.64;97035.56;4955713;28;20207;-30
2023/04/11 06:21:03;;;;;;;6.50;4.80;;;;;;;19.71;49.69;97033.03;4951870;28;20224;-31
2023/04/11 06:23:30;;;;;;;11.40;5.20;;;;;;;19.70;49.40;97026.22;4954388;28;20227;-29
2023/04/11 06:25:56;;;;;;;7.00;5.03;;;;;;;19.63;49.55;97023.44;4955389;28;20414;-30
2023/04/11 06:28:23;;;;;;;8.33;4.97;;;;;;;19.69;49.89;97041.47;4950449;28;20204;-30
2023/04/11 06:30:50;;;;;;;10.23;5.07;;;;;;;19.61;49.97;97025.06;4953504;28;20601;-30
2023/04/11 06:33:17;;;;;;;6.33;4.53;;;;;;;19.35;49.69;96978.44;4946516;29;20299;-31
2023/04/11 06:35:44;;;;;;;8.00;4.83;;;;;;;19.68;49.68;97040.59;4947417;29;20200;-29
2023/04/11 06:38:11;;;;;;;9.93;4.67;;;;;;;19.68;49.90;97053.31;4947480;29;20711;-29
2023/04/11 06:40:37;;;;;;;6.97;4.63;;;;;;;19.68;50.22;97060.97;4951931;28;20230;-30
2023/04/11 06:43:04;;;;;;;7.93;4.53;;;;;;;19.66;50.32;97064.31;4950331;29;20224;-31
2023/04/11 06:45:30;;;;;;;10.37;4.93;;;;;;;19.62;49.69;97068.44;4957051;28;20224;-29
2023/04/11 06:47:57;;;;;;;8.07;4.37;;;;;;;19.67;49.90;97063.47;4946927;29;20259;-29
2023/04/11 06:50:24;;;;;;;9.43;4.13;;;;;;;19.67;50.10;97060.94;4956137;29;20702;-31
2023/04/11 06:52:50;;;;;;;10.57;4.50;;;;;;;19.63;49.70;97069.31;4953895;28;20200;-30
2023/04/11 06:55:17;;;;;;;5.63;4.63;;;;;;;19.64;50.06;97077.00;4943930;28;20196;-30
2023/04/11 06:57:44;;;;;;;6.17;4.27;;;;;;;19.63;50.31;97080.34;4952878;28;20212;-30
2023/04/11 07:00:12;;;;;;;7.23;4.50;;;;;;;19.67;50.19;97086.44;4948563;28;20260;-35
2023/04/11 07:02:38;;;;;;;7.27;4.37;;;;;;;19.63;50.00;97082.06;4948339;28;20581;-31
2023/04/11 07:05:08;;;;;;;7.37;4.30;;;;;;;19.61;50.28;97078.59;4946281;29;20293;-31
2023/04/11 07:07:35;;;;;;;8.40;4.10;;;;;;;19.62;50.27;97086.28;4951105;29;20235;-31
2023/04/11 07:10:02;;;;;;;6.43;3.93;;;;;;;19.63;50.48;97084.63;4944005;28;20315;-31
2023/04/11 07:12:28;;;;;;;13.13;4.37;;;;;;;19.67;50.40;97089.84;4949043;28;20291;-29
2023/04/11 07:14:56;;;;;;;6.63;4.10;;;;;;;19.68;50.70;97089.03;4952403;28;20668;-29
2023/04/11 07:17:23;;;;;;;8.07;4.33;;;;;;;19.51;50.67;97063.88;4947549;29;20288;-30
2023/04/11 07:19:49;;;;;;;12.63;4.57;;;;;;;19.69;50.61;97105.19;4933110;29;20644;-31
2023/04/11 07:22:16;;;;;;;8.50;3.97;;;;;;;19.68;50.64;97104.31;4948003;28;20212;-29
2023/04/11 07:24:45;;;;;;;14.00;3.97;;;;;;;19.67;50.23;97106.81;4951060;28;20204;-31
2023/04/11 07:27:13;;;;;;;6.87;4.20;;;;;;;19.69;50.41;97111.13;4943002;29;20696;-32
2023/04/11 07:29:40;;;;;;;4.93;3.50;;;;;;;19.69;50.46;97144.28;4944048;28;20356;-30
2023/04/11 07:32:06;;;;;;;8.07;4.23;;;;;;;19.71;50.71;97169.81;4943919;29;20212;-31
2023/04/11 07:34:33;;;;;;;7.40;4.13;;;;;;;19.68;50.70;97165.50;4945334;28;20200;-31
2023/04/11 07:36:59;;;;;;;11.30;4.10;;;;;;;19.72;50.65;97172.41;4943377;29;20668;-30
2023/04/11 07:39:26;;;;;;;7.63;3.43;;;;;;;19.70;50.29;97161.31;4943440;28;20231;-31
2023/04/11 07:41:53;;;;;;;6.43;3.97;;;;;;;19.72;50.32;97167.31;4944981;28;20216;-33
2023/04/11 07:44:20;;;;;;;7.10;3.83;;;;;;;19.72;50.22;97169.84;4927378;29;20212;-31
2023/04/11 07:46:47;;;;;;;5.37;3.80;;;;;;;19.71;50.45;97180.00;4944830;29;20228;-27
2023/04/11 07:49:14;;;;;;;7.20;3.60;;;;;;;19.73;50.32;97183.47;4945848;29;20223;-28
2023/04/11 07:51:41;;;;;;;8.40;3.83;;;;;;;19.71;50.26;97193.63;4949696;29;20782;-27
2023/04/11 07:54:08;;;;;;;7.03;4.40;;;;;;;19.73;50.73;97196.22;4943766;29;20205;-32
2023/04/11 07:56:35;;;;;;;7.13;4.37;;;;;;;19.73;50.90;97191.13;4943904;29;20243;-28
2023/04/11 07:59:02;;;;;;;5.77;3.37;;;;;;;19.73;50.64;97198.78;4948315;28;20734;-28
2023/04/11 08:01:28;;;;;;;5.13;3.50;;;;;;;19.70;50.64;97191.91;4947492;28;20690;-29
2023/04/11 08:03:55;;;;;;;8.30;3.50;;;;;;;19.68;50.78;97185.91;4947269;29;20204;-38
2023/04/11 08:06:22;;;;;;;8.70;3.70;;;;;;;19.73;50.77;97192.00;4945128;29;20228;-28
2023/04/11 08:08:49;;;;;;;7.33;3.70;;;;;;;19.73;50.72;97189.47;4940146;29;20212;-31
2023/04/11 08:11:16;;;;;;;6.90;3.30;;;;;;;19.71;50.70;97192.75;4941927;28;20239;-31
2023/04/11 08:13:42;;;;;;;7.23;3.40;;;;;;;19.68;50.70;97185.91;4945475;29;20239;-31
2023/04/11 08:16:10;;;;;;;7.17;2.87;;;;;;;19.69;50.80;97191.88;4946555;29;20211;-30
2023/04/11 08:18:40;;;;;;;8.93;3.27;;;;;;;19.67;51.18;97193.50;4949422;29;20207;-33
2023/04/11 08:21:09;;;;;;;6.50;3.43;;;;;;;19.69;50.96;97219.91;4933683;28;20228;-31
2023/04/11 08:23:36;;;;;;;5.47;3.13;;;;;;;19.67;50.95;97219.88;4913526;29;20220;-32
2023/04/11 08:26:02;;;;;;;5.80;3.50;;;;;;;19.70;50.79;97211.44;4940657;28;20260;-31
2023/04/11 08:28:29;;;;;;;4.37;3.30;;;;;;;19.66;50.98;97218.09;4946533;28;20240;-30
2023/04/11 08:30:57;;;;;;;5.80;3.43;;;;;;;19.73;50.36;97245.56;4944856;28;20267;-31
2023/04/11 08:33:24;;;;;;;4.37;3.40;;;;;;;19.69;50.87;97243.69;4943067;29;20212;-31
2023/04/11 08:35:51;;;;;;;8.70;3.53;;;;;;;19.74;50.90;97256.59;4940097;29;20215;-31
2023/04/11 08:38:18;;;;;;;10.27;3.20;;;;;;;19.70;50.98;97247.13;4948432;29;20722;-30
2023/04/11 08:40:45;;;;;;;5.30;3.30;;;;;;;19.74;51.15;97246.41;4941481;28;20239;-31
2023/04/11 08:43:11;;;;;;;5.00;3.30;;;;;;;19.73;50.99;97231.94;4944896;29;20291;-31
2023/04/11 08:45:38;;;;;;;5.23;3.50;;;;;;;19.74;50.85;97248.94;4946613;29;20240;-29
2023/04/11 08:48:06;;;;;;;4.83;2.87;;;;;;;19.72;50.87;97248.06;4941605;29;20209;-31
2023/04/11 08:50:33;;;;;;;5.53;3.33;;;;;;;19.63;51.09;97225.66;4950110;28;20325;-30
2023/04/11 08:53:03;;;;;;;7.80;3.40;;;;;;;19.74;50.95;97208.16;4939944;28;20700;-31
2023/04/11 08:55:30;;;;;;;6.43;3.27;;;;;;;19.73;50.95;97222.59;4942576;28;20276;-29
2023/04/11 08:57:58;;;;;;;6.93;3.47;;;;;;;19.70;51.33;97235.25;4944449;29;20244;-31
2023/04/11 09:00:27;;;;;;;6.53;3.10;;;;;;;19.73;50.76;97253.19;4944400;29;20220;-31
2023/04/11 09:02:55;;;;;;;6.70;2.93;;;;;;;19.68;50.92;97241.09;4944959;28;20296;-32
2023/04/11 09:05:26;;;;;;;10.03;3.63;;;;;;;19.70;51.02;97250.56;4946581;28;20197;-32
2023/04/11 09:07:53;;;;;;;15.50;3.33;;;;;;;19.71;50.82;97252.28;4943877;29;20216;-29
2023/04/11 09:10:20;;;;;;;9.80;3.07;;;;;;;19.72;50.97;97259.09;4943132;28;20685;-29
2023/04/11 09:12:47;;;;;;;8.87;3.37;;;;;;;19.73;51.53;97262.53;4942700;29;20209;-31
2023/04/11 09:15:21;;;;;;;7.10;3.03;;;;;;;19.73;51.01;97244.69;4947920;29;20208;-30
2023/04/11 09:17:48;;;;;;;4.90;2.70;;;;;;;19.70;51.21;97250.56;4945141;29;20208;-31
2023/04/11 09:20:19;;;;;;;8.27;2.90;;;;;;;19.71;51.10;97249.72;4944806;28;20243;-30
2023/04/11 09:22:48;;;;;;;7.83;2.97;;;;;;;19.71;51.45;97246.31;4945721;29;20288;-31
2023/04/11 09:25:17;;;;;;;6.27;3.00;;;;;;;19.68;51.33;97238.56;4931269;29;20208;-31
2023/04/11 09:27:43;;;;;;;9.53;3.13;;;;;;;19.71;51.45;97236.97;4949799;28;20698;-33
2023/04/11 09:30:18;;;;;;;14.43;3.23;;;;;;;19.58;51.60;97218.69;4946836;28;20706;-31
2023/04/11 09:32:47;;;;;;;5.80;2.70;;;;;;;19.64;51.69;97235.06;4943199;29;20206;-31
2023/04/11 09:35:19;;;;;;;10.77;3.30;;;;;;;19.71;51.59;97259.03;4942568;29;20204;-31
2023/04/11 09:37:46;;;;;;;4.77;2.90;;;;;;;19.71;51.66;97256.50;4947265;28;20208;-31
2023/04/11 09:40:13;;;;;;;6.63;2.90;;;;;;;19.67;51.71;97258.09;4942015;29;20216;-32
2023/04/11 09:42:41;;;;;;;5.43;2.60;;;;;;;19.69;51.87;97260.69;4946346;29;20501;-31
2023/04/11 09:45:16;;;;;;;7.73;2.70;;;;;;;19.72;51.84;97273.53;4949328;29;20200;-29
2023/04/11 09:47:44;;;;;;;4.93;2.73;;;;;;;19.72;51.84;97265.91;4945352;28;20227;-31
2023/04/11 09:50:11;;;;;;;6.30;2.60;;;;;;;19.67;51.78;97263.19;4950376;28;20240;-30
2023/04/11 09:52:40;;;;;;;8.60;2.67;;;;;;;19.72;51.79;97268.44;4947921;29;20212;-31
2023/04/11 09:55:07;;;;;;;5.00;2.83;;;;;;;19.69;51.94;97261.53;4948720;29;20294;-32
2023/04/11 09:57:33;;;;;;;6.20;2.60;;;;;;;19.71;51.99;97271.78;4914811;29;20288;-29
2023/04/11 10:00:05;;;;;;;4.33;2.33;;;;;;;19.64;51.83;97263.09;4929174;28;20228;-27
2023/04/11 10:02:32;;;;;;;7.93;2.47;;;;;;;19.70;51.87;97280.28;4930852;29;20208;-28
2023/04/11 10:05:03;;;;;;;4.00;2.60;;;;;;;19.66;51.87;97258.06;4930439;29;20291;-29
2023/04/11 10:07:29;;;;;;;5.23;2.67;;;;;;;19.71;51.94;97262.47;4930201;29;20220;-28
2023/04/11 10:09:56;;;;;;;9.93;2.67;;;;;;;19.36;51.50;97209.47;4928786;29;20315;-29
2023/04/11 10:12:32;;;;;;;4.80;2.63;;;;;;;19.70;51.89;97264.97;4923225;29;20279;-27
2023/04/11 10:15:07;;;;;;;8.90;2.97;;;;;;;19.73;51.68;97255.75;4943910;28;20207;-28
2023/04/11 10:17:33;;;;;;;8.73;2.40;;;;;;;19.70;51.84;97260.75;4948001;28;20215;-35
2023/04/11 10:20:00;;;;;;;10.07;2.63;;;;;;;19.70;51.32;97245.44;4914196;29;20303;-28
2023/04/11 10:22:42;;;;;;;5.70;2.40;;;;;;;19.73;51.69;97254.88;4931542;29;20209;-27
2023/04/11 10:25:16;;;;;;;3.60;2.50;;;;;;;19.73;51.53;97250.66;4943745;29;20260;-27
2023/04/11 10:27:49;;;;;;;6.00;3.00;;;;;;;19.70;51.48;97247.13;4948105;29;20228;-30
2023/04/11 10:30:16;;;;;;;6.53;2.33;;;;;;;19.72;51.72;97253.16;4921579;29;20217;-29
2023/04/11 10:33:08;;;;;;;3.43;2.33;;;;;;;19.74;51.27;97259.16;4943857;28;20675;-28
2023/04/11 10:35:35;;;;;;;4.90;2.60;;;;;;;19.74;51.80;97256.59;4942482;29;20726;-27
2023/04/11 10:38:01;;;;;;;4.73;2.37;;;;;;;19.72;51.21;97259.09;4915504;29;20620;-28
2023/04/11 10:40:28;;;;;;;10.10;2.70;;;;;;;19.68;51.30;97256.41;4944374;28;20684;-29
2023/04/11 10:42:56;;;;;;;4.27;2.67;;;;;;;19.74;51.98;97272.78;4952662;29;20211;-30
2023/04/11 10:45:23;;;;;;;4.80;2.53;;;;;;;19.74;51.64;97274.44;4933274;29;20630;-28
2023/04/11 10:47:50;;;;;;;5.23;2.93;;;;;;;19.75;51.69;97282.13;4950720;28;20599;-30
2023/04/11 10:50:26;;;;;;;5.27;2.60;;;;;;;19.75;51.88;97286.41;4947648;28;20485;-28
2023/04/11 10:52:53;;;;;;;4.17;2.37;;;;;;;19.66;51.80;97258.06;4949607;29;20200;-28
2023/04/11 10:55:19;;;;;;;6.47;2.30;;;;;;;19.71;51.74;97280.31;4945577;29;20204;-30
2023/04/11 10:58:04;;;;;;;3.40;2.07;;;;;;;19.76;51.60;97283.03;4926794;29;20293;-28
2023/04/11 11:00:59;;;;;;;3.87;2.33;;;;;;;19.76;51.61;97271.16;4951569;28;20326;-29
2023/04/11 11:03:29;;;;;;;3.37;2.40;;;;;;;19.71;51.62;97261.59;4949693;29;20204;-28
2023/04/11 11:06:03;;;;;;;4.97;2.40;;;;;;;19.76;51.62;97267.72;4947782;29;20256;-27
2023/04/11 11:08:37;;;;;;;5.50;2.17;;;;;;;19.73;51.60;97255.75;4947476;29;20641;-29
2023/04/11 11:11:07;;;;;;;4.77;2.40;;;;;;;19.75;51.45;97256.66;4945085;28;20232;-29
2023/04/11 11:13:40;;;;;;;3.87;2.20;;;;;;;19.79;51.61;97267.81;4948976;28;20691;-29
2023/04/11 11:16:07;;;;;;;7.30;2.60;;;;;;;19.80;51.56;97267.88;4950693;28;20243;-29
2023/04/11 11:18:34;;;;;;;4.63;2.40;;;;;;;19.79;51.15;97265.28;4947517;29;20205;-29
2023/04/11 11:21:00;;;;;;;3.60;2.33;;;;;;;19.77;52.02;97262.66;4930718;29;20224;-28
2023/04/11 11:23:27;;;;;;;3.70;2.13;;;;;;;19.79;51.41;97276.34;4932400;28;20612;-29
2023/04/11 11:25:54;;;;;;;3.60;2.30;;;;;;;19.80;51.49;97269.53;4946962;29;20208;-28
2023/04/11 11:28:21;;;;;;;6.13;2.10;;;;;;;19.81;51.45;97273.84;4915713;29;20323;-28
2023/04/11 11:30:55;;;;;;;4.77;2.30;;;;;;;19.34;51.30;97195.84;4949680;28;20283;-29
2023/04/11 11:33:25;;;;;;;3.83;2.20;;;;;;;19.80;51.32;97274.63;4949446;28;20215;-29